sensor_id;sensor_type;location;lat;lon;timestamp;P1;durP1;ratioP1;P2;durP2;ratioP2
7539;SDS011;3811;49.006;12.076;2023-11-19T00:01:29;1.20;;;1.10;;
7539;SDS011;3811;49.006;12.076;2023-11-19T00:03:57;1.30;;;1.20;;
7539;SDS011;3811;49.006;12.076;2023-11-19T00:06:26;1.23;;;1.23;;
7539;SDS011;3811;49.006;12.076;2023-11-19T00:08:53;0.83;;;0.83;;
7539;SDS011;3811;49.006;12.076;2023-11-19T00:11:21;0.73;;;0.73;;
7539;SDS011;3811;49.006;12.076;2023-11-19T00:13:48;1.10;;;1.10;;
7539;SDS011;3811;49.006;12.076;2023-11-19T00:16:15;0.70;;;0.70;;
7539;SDS011;3811;49.006;12.076;2023-11-19T00:18:42;1.17;;;1.00;;
7539;SDS011;3811;49.006;12.076;2023-11-19T00:21:09;1.07;;;1.07;;
7539;SDS011;3811;49.006;12.076;2023-11-19T00:23:38;1.90;;;1.00;;
7539;SDS011;3811;49.006;12.076;2023-11-19T00:26:05;0.90;;;0.90;;
7539;SDS011;3811;49.006;12.076;2023-11-19T00:28:32;0.67;;;0.67;;
7539;SDS011;3811;49.006;12.076;2023-11-19T00:31:04;0.93;;;0.93;;
7539;SDS011;3811;49.006;12.076;2023-11-19T00:33:31;0.90;;;0.87;;
7539;SDS011;3811;49.006;12.076;2023-11-19T00:35:58;0.90;;;0.90;;
7539;SDS011;3811;49.006;12.076;2023-11-19T00:38:25;0.87;;;0.87;;
7539;SDS011;3811;49.006;12.076;2023-11-19T00:40:54;0.90;;;0.90;;
7539;SDS011;3811;49.006;12.076;2023-11-19T00:43:21;1.13;;;1.00;;
7539;SDS011;3811;49.006;12.076;2023-11-19T00:45:48;1.10;;;0.90;;
7539;SDS011;3811;49.006;12.076;2023-11-19T00:48:16;0.77;;;0.77;;
7539;SDS011;3811;49.006;12.076;2023-11-19T00:50:43;0.70;;;0.70;;
7539;SDS011;3811;49.006;12.076;2023-11-19T00:53:11;0.53;;;0.53;;
7539;SDS011;3811;49.006;12.076;2023-11-19T00:55:38;1.07;;;1.07;;
7539;SDS011;3811;49.006;12.076;2023-11-19T00:58:07;0.70;;;0.70;;
7539;SDS011;3811;49.006;12.076;2023-11-19T01:00:34;0.80;;;0.80;;
7539;SDS011;3811;49.006;12.076;2023-11-19T01:03:01;1.07;;;1.03;;
7539;SDS011;3811;49.006;12.076;2023-11-19T01:05:28;0.70;;;0.70;;
7539;SDS011;3811;49.006;12.076;2023-11-19T01:07:55;1.43;;;1.33;;
7539;SDS011;3811;49.006;12.076;2023-11-19T01:10:23;0.70;;;0.70;;
7539;SDS011;3811;49.006;12.076;2023-11-19T01:12:51;1.40;;;1.40;;
7539;SDS011;3811;49.006;12.076;2023-11-19T01:15:20;1.53;;;0.93;;
7539;SDS011;3811;49.006;12.076;2023-11-19T01:17:48;1.40;;;1.30;;
7539;SDS011;3811;49.006;12.076;2023-11-19T01:20:15;1.03;;;0.93;;
7539;SDS011;3811;49.006;12.076;2023-11-19T01:22:42;0.90;;;0.90;;
7539;SDS011;3811;49.006;12.076;2023-11-19T01:25:09;0.93;;;0.90;;
7539;SDS011;3811;49.006;12.076;2023-11-19T01:27:37;1.10;;;1.10;;
7539;SDS011;3811;49.006;12.076;2023-11-19T01:30:05;0.83;;;0.83;;
7539;SDS011;3811;49.006;12.076;2023-11-19T01:32:36;0.60;;;0.60;;
7539;SDS011;3811;49.006;12.076;2023-11-19T01:35:03;0.80;;;0.80;;
7539;SDS011;3811;49.006;12.076;2023-11-19T01:37:30;0.90;;;0.90;;
7539;SDS011;3811;49.006;12.076;2023-11-19T01:39:57;0.60;;;0.60;;
7539;SDS011;3811;49.006;12.076;2023-11-19T01:42:24;0.57;;;0.57;;
7539;SDS011;3811;49.006;12.076;2023-11-19T01:44:57;0.80;;;0.80;;
7539;SDS011;3811;49.006;12.076;2023-11-19T01:47:25;1.10;;;1.00;;
7539;SDS011;3811;49.006;12.076;2023-11-19T01:49:53;1.00;;;1.00;;
7539;SDS011;3811;49.006;12.076;2023-11-19T01:52:22;1.43;;;1.33;;
7539;SDS011;3811;49.006;12.076;2023-11-19T01:54:50;1.00;;;1.00;;
7539;SDS011;3811;49.006;12.076;2023-11-19T01:57:18;0.60;;;0.60;;
7539;SDS011;3811;49.006;12.076;2023-11-19T01:59:46;1.60;;;1.50;;
7539;SDS011;3811;49.006;12.076;2023-11-19T02:02:13;0.97;;;0.97;;
7539;SDS011;3811;49.006;12.076;2023-11-19T02:04:41;1.77;;;0.60;;
7539;SDS011;3811;49.006;12.076;2023-11-19T02:07:09;0.60;;;0.60;;
7539;SDS011;3811;49.006;12.076;2023-11-19T02:09:36;1.00;;;1.00;;
7539;SDS011;3811;49.006;12.076;2023-11-19T02:12:04;0.90;;;0.90;;
7539;SDS011;3811;49.006;12.076;2023-11-19T02:14:31;0.80;;;0.80;;
7539;SDS011;3811;49.006;12.076;2023-11-19T02:16:59;1.03;;;1.00;;
7539;SDS011;3811;49.006;12.076;2023-11-19T02:19:26;0.70;;;0.70;;
7539;SDS011;3811;49.006;12.076;2023-11-19T02:21:54;0.70;;;0.70;;
7539;SDS011;3811;49.006;12.076;2023-11-19T02:24:23;0.60;;;0.60;;
7539;SDS011;3811;49.006;12.076;2023-11-19T02:26:53;0.63;;;0.63;;
7539;SDS011;3811;49.006;12.076;2023-11-19T02:29:25;0.97;;;0.97;;
7539;SDS011;3811;49.006;12.076;2023-11-19T02:31:52;1.10;;;1.03;;
7539;SDS011;3811;49.006;12.076;2023-11-19T02:34:20;0.70;;;0.70;;
7539;SDS011;3811;49.006;12.076;2023-11-19T02:36:47;0.70;;;0.70;;
7539;SDS011;3811;49.006;12.076;2023-11-19T02:39:15;0.80;;;0.80;;
7539;SDS011;3811;49.006;12.076;2023-11-19T02:41:46;0.70;;;0.70;;
7539;SDS011;3811;49.006;12.076;2023-11-19T02:44:16;0.60;;;0.60;;
7539;SDS011;3811;49.006;12.076;2023-11-19T02:46:44;0.97;;;0.97;;
7539;SDS011;3811;49.006;12.076;2023-11-19T02:49:13;0.53;;;0.53;;
7539;SDS011;3811;49.006;12.076;2023-11-19T02:51:41;0.93;;;0.80;;
7539;SDS011;3811;49.006;12.076;2023-11-19T02:54:08;0.80;;;0.80;;
7539;SDS011;3811;49.006;12.076;2023-11-19T02:56:35;1.00;;;1.00;;
7539;SDS011;3811;49.006;12.076;2023-11-19T02:59:04;0.83;;;0.83;;
7539;SDS011;3811;49.006;12.076;2023-11-19T03:01:40;0.70;;;0.67;;
7539;SDS011;3811;49.006;12.076;2023-11-19T03:04:10;0.83;;;0.73;;
7539;SDS011;3811;49.006;12.076;2023-11-19T03:06:42;0.77;;;0.77;;
7539;SDS011;3811;49.006;12.076;2023-11-19T03:09:09;1.20;;;1.20;;
7539;SDS011;3811;49.006;12.076;2023-11-19T03:11:36;0.73;;;0.73;;
7539;SDS011;3811;49.006;12.076;2023-11-19T03:14:03;1.00;;;1.00;;
7539;SDS011;3811;49.006;12.076;2023-11-19T03:16:31;1.10;;;1.10;;
7539;SDS011;3811;49.006;12.076;2023-11-19T03:18:58;0.80;;;0.80;;
7539;SDS011;3811;49.006;12.076;2023-11-19T03:21:28;1.27;;;1.23;;
7539;SDS011;3811;49.006;12.076;2023-11-19T03:23:56;0.97;;;0.90;;
7539;SDS011;3811;49.006;12.076;2023-11-19T03:26:25;1.03;;;1.03;;
7539;SDS011;3811;49.006;12.076;2023-11-19T03:28:52;0.90;;;0.90;;
7539;SDS011;3811;49.006;12.076;2023-11-19T03:31:22;0.60;;;0.60;;
7539;SDS011;3811;49.006;12.076;2023-11-19T03:33:50;0.77;;;0.77;;
7539;SDS011;3811;49.006;12.076;2023-11-19T03:36:17;0.90;;;0.90;;
7539;SDS011;3811;49.006;12.076;2023-11-19T03:38:46;1.00;;;1.00;;
7539;SDS011;3811;49.006;12.076;2023-11-19T03:41:13;0.90;;;0.90;;
7539;SDS011;3811;49.006;12.076;2023-11-19T03:43:41;1.30;;;0.97;;
7539;SDS011;3811;49.006;12.076;2023-11-19T03:46:17;1.00;;;1.00;;
7539;SDS011;3811;49.006;12.076;2023-11-19T03:48:45;1.00;;;1.00;;
7539;SDS011;3811;49.006;12.076;2023-11-19T03:51:12;0.60;;;0.60;;
7539;SDS011;3811;49.006;12.076;2023-11-19T03:53:40;1.20;;;1.20;;
7539;SDS011;3811;49.006;12.076;2023-11-19T03:56:09;1.23;;;1.17;;
7539;SDS011;3811;49.006;12.076;2023-11-19T03:58:37;0.93;;;0.90;;
7539;SDS011;3811;49.006;12.076;2023-11-19T04:01:04;1.20;;;1.20;;
7539;SDS011;3811;49.006;12.076;2023-11-19T04:03:32;1.67;;;1.57;;
7539;SDS011;3811;49.006;12.076;2023-11-19T04:05:59;0.80;;;0.80;;
7539;SDS011;3811;49.006;12.076;2023-11-19T04:08:26;1.50;;;0.80;;
7539;SDS011;3811;49.006;12.076;2023-11-19T04:10:53;0.87;;;0.87;;
7539;SDS011;3811;49.006;12.076;2023-11-19T04:13:22;0.80;;;0.80;;
7539;SDS011;3811;49.006;12.076;2023-11-19T04:15:49;0.90;;;0.90;;
7539;SDS011;3811;49.006;12.076;2023-11-19T04:18:16;0.93;;;0.93;;
7539;SDS011;3811;49.006;12.076;2023-11-19T04:20:44;0.63;;;0.63;;
7539;SDS011;3811;49.006;12.076;2023-11-19T04:23:11;1.70;;;1.10;;
7539;SDS011;3811;49.006;12.076;2023-11-19T04:25:38;1.90;;;1.17;;
7539;SDS011;3811;49.006;12.076;2023-11-19T04:28:05;1.27;;;1.13;;
7539;SDS011;3811;49.006;12.076;2023-11-19T04:30:34;0.90;;;0.90;;
7539;SDS011;3811;49.006;12.076;2023-11-19T04:33:03;0.70;;;0.70;;
7539;SDS011;3811;49.006;12.076;2023-11-19T04:35:30;1.23;;;1.20;;
7539;SDS011;3811;49.006;12.076;2023-11-19T04:37:58;1.00;;;1.00;;
7539;SDS011;3811;49.006;12.076;2023-11-19T04:40:25;0.87;;;0.87;;
7539;SDS011;3811;49.006;12.076;2023-11-19T04:42:52;1.13;;;1.03;;
7539;SDS011;3811;49.006;12.076;2023-11-19T04:45:19;1.43;;;1.33;;
7539;SDS011;3811;49.006;12.076;2023-11-19T04:47:48;1.80;;;1.23;;
7539;SDS011;3811;49.006;12.076;2023-11-19T04:50:15;1.20;;;1.10;;
7539;SDS011;3811;49.006;12.076;2023-11-19T04:52:42;1.10;;;1.10;;
7539;SDS011;3811;49.006;12.076;2023-11-19T04:55:10;1.00;;;0.93;;
7539;SDS011;3811;49.006;12.076;2023-11-19T04:57:38;1.13;;;1.03;;
7539;SDS011;3811;49.006;12.076;2023-11-19T05:00:05;0.60;;;0.60;;
7539;SDS011;3811;49.006;12.076;2023-11-19T05:02:33;0.87;;;0.87;;
7539;SDS011;3811;49.006;12.076;2023-11-19T05:05:01;1.47;;;1.17;;
7539;SDS011;3811;49.006;12.076;2023-11-19T05:07:29;0.93;;;0.93;;
7539;SDS011;3811;49.006;12.076;2023-11-19T05:09:56;1.00;;;1.00;;
7539;SDS011;3811;49.006;12.076;2023-11-19T05:12:24;1.37;;;1.27;;
7539;SDS011;3811;49.006;12.076;2023-11-19T05:14:51;1.10;;;0.83;;
7539;SDS011;3811;49.006;12.076;2023-11-19T05:17:18;1.40;;;1.30;;
7539;SDS011;3811;49.006;12.076;2023-11-19T05:19:45;1.60;;;1.50;;
7539;SDS011;3811;49.006;12.076;2023-11-19T05:22:14;1.43;;;1.33;;
7539;SDS011;3811;49.006;12.076;2023-11-19T05:24:42;1.97;;;1.37;;
7539;SDS011;3811;49.006;12.076;2023-11-19T05:27:09;2.80;;;1.03;;
7539;SDS011;3811;49.006;12.076;2023-11-19T05:29:38;1.70;;;1.27;;
7539;SDS011;3811;49.006;12.076;2023-11-19T05:32:06;1.57;;;1.20;;
7539;SDS011;3811;49.006;12.076;2023-11-19T05:34:33;1.73;;;1.63;;
7539;SDS011;3811;49.006;12.076;2023-11-19T05:37:00;1.60;;;1.50;;
7539;SDS011;3811;49.006;12.076;2023-11-19T05:39:29;1.53;;;1.43;;
7539;SDS011;3811;49.006;12.076;2023-11-19T05:41:56;1.80;;;1.40;;
7539;SDS011;3811;49.006;12.076;2023-11-19T05:44:23;1.83;;;1.50;;
7539;SDS011;3811;49.006;12.076;2023-11-19T05:46:50;1.33;;;1.23;;
7539;SDS011;3811;49.006;12.076;2023-11-19T05:49:17;1.40;;;1.40;;
7539;SDS011;3811;49.006;12.076;2023-11-19T05:51:45;1.73;;;1.63;;
7539;SDS011;3811;49.006;12.076;2023-11-19T05:54:12;3.43;;;1.83;;
7539;SDS011;3811;49.006;12.076;2023-11-19T05:56:40;1.93;;;1.60;;
7539;SDS011;3811;49.006;12.076;2023-11-19T05:59:07;2.17;;;1.63;;
7539;SDS011;3811;49.006;12.076;2023-11-19T06:01:40;1.87;;;1.70;;
7539;SDS011;3811;49.006;12.076;2023-11-19T06:04:07;2.80;;;2.00;;
7539;SDS011;3811;49.006;12.076;2023-11-19T06:06:35;1.70;;;1.60;;
7539;SDS011;3811;49.006;12.076;2023-11-19T06:09:02;1.43;;;1.23;;
7539;SDS011;3811;49.006;12.076;2023-11-19T06:11:31;1.50;;;1.50;;
7539;SDS011;3811;49.006;12.076;2023-11-19T06:14:00;1.70;;;1.60;;
7539;SDS011;3811;49.006;12.076;2023-11-19T06:16:27;1.70;;;1.60;;
7539;SDS011;3811;49.006;12.076;2023-11-19T06:18:54;2.97;;;1.87;;
7539;SDS011;3811;49.006;12.076;2023-11-19T06:21:21;2.33;;;1.20;;
7539;SDS011;3811;49.006;12.076;2023-11-19T06:23:49;2.07;;;1.50;;
7539;SDS011;3811;49.006;12.076;2023-11-19T06:26:18;1.80;;;1.60;;
7539;SDS011;3811;49.006;12.076;2023-11-19T06:28:47;1.67;;;1.50;;
7539;SDS011;3811;49.006;12.076;2023-11-19T06:31:16;1.47;;;1.37;;
7539;SDS011;3811;49.006;12.076;2023-11-19T06:33:43;2.20;;;1.80;;
7539;SDS011;3811;49.006;12.076;2023-11-19T06:36:10;1.33;;;1.30;;
7539;SDS011;3811;49.006;12.076;2023-11-19T06:38:37;0.97;;;0.97;;
7539;SDS011;3811;49.006;12.076;2023-11-19T06:41:06;1.60;;;1.50;;
7539;SDS011;3811;49.006;12.076;2023-11-19T06:43:34;1.47;;;1.37;;
7539;SDS011;3811;49.006;12.076;2023-11-19T06:46:01;1.83;;;1.60;;
7539;SDS011;3811;49.006;12.076;2023-11-19T06:48:32;1.47;;;1.40;;
7539;SDS011;3811;49.006;12.076;2023-11-19T06:50:59;1.43;;;1.30;;
7539;SDS011;3811;49.006;12.076;2023-11-19T06:53:26;1.53;;;1.30;;
7539;SDS011;3811;49.006;12.076;2023-11-19T06:55:54;1.93;;;1.70;;
7539;SDS011;3811;49.006;12.076;2023-11-19T06:58:22;1.80;;;1.57;;
7539;SDS011;3811;49.006;12.076;2023-11-19T07:00:49;1.57;;;1.47;;
7539;SDS011;3811;49.006;12.076;2023-11-19T07:03:16;1.40;;;1.20;;
7539;SDS011;3811;49.006;12.076;2023-11-19T07:05:46;1.60;;;1.50;;
7539;SDS011;3811;49.006;12.076;2023-11-19T07:08:14;1.57;;;1.47;;
7539;SDS011;3811;49.006;12.076;2023-11-19T07:10:41;1.40;;;1.23;;
7539;SDS011;3811;49.006;12.076;2023-11-19T07:13:08;1.40;;;1.30;;
7539;SDS011;3811;49.006;12.076;2023-11-19T07:15:35;1.67;;;1.33;;
7539;SDS011;3811;49.006;12.076;2023-11-19T07:18:02;1.00;;;1.00;;
7539;SDS011;3811;49.006;12.076;2023-11-19T07:20:29;1.07;;;1.00;;
7539;SDS011;3811;49.006;12.076;2023-11-19T07:22:59;1.77;;;1.33;;
7539;SDS011;3811;49.006;12.076;2023-11-19T07:25:26;1.70;;;1.37;;
7539;SDS011;3811;49.006;12.076;2023-11-19T07:27:53;1.20;;;1.20;;
7539;SDS011;3811;49.006;12.076;2023-11-19T07:30:21;1.40;;;1.30;;
7539;SDS011;3811;49.006;12.076;2023-11-19T07:32:48;1.33;;;1.23;;
7539;SDS011;3811;49.006;12.076;2023-11-19T07:35:15;2.73;;;1.23;;
7539;SDS011;3811;49.006;12.076;2023-11-19T07:37:42;1.30;;;1.20;;
7539;SDS011;3811;49.006;12.076;2023-11-19T07:40:12;1.13;;;1.13;;
7539;SDS011;3811;49.006;12.076;2023-11-19T07:42:40;0.97;;;0.97;;
7539;SDS011;3811;49.006;12.076;2023-11-19T07:45:07;1.43;;;1.33;;
7539;SDS011;3811;49.006;12.076;2023-11-19T07:47:34;1.23;;;1.10;;
7539;SDS011;3811;49.006;12.076;2023-11-19T07:50:02;0.90;;;0.90;;
7539;SDS011;3811;49.006;12.076;2023-11-19T07:52:29;1.27;;;1.20;;
7539;SDS011;3811;49.006;12.076;2023-11-19T07:54:56;0.83;;;0.80;;
7539;SDS011;3811;49.006;12.076;2023-11-19T07:57:25;1.43;;;1.33;;
7539;SDS011;3811;49.006;12.076;2023-11-19T07:59:55;0.83;;;0.83;;
7539;SDS011;3811;49.006;12.076;2023-11-19T08:02:22;1.17;;;1.10;;
7539;SDS011;3811;49.006;12.076;2023-11-19T08:04:49;1.00;;;1.00;;
7539;SDS011;3811;49.006;12.076;2023-11-19T08:07:17;1.60;;;1.50;;
7539;SDS011;3811;49.006;12.076;2023-11-19T08:09:44;1.13;;;1.07;;
7539;SDS011;3811;49.006;12.076;2023-11-19T08:12:11;1.80;;;1.20;;
7539;SDS011;3811;49.006;12.076;2023-11-19T08:14:41;1.93;;;1.77;;
7539;SDS011;3811;49.006;12.076;2023-11-19T08:17:09;1.07;;;1.07;;
7539;SDS011;3811;49.006;12.076;2023-11-19T08:19:36;2.03;;;1.30;;
7539;SDS011;3811;49.006;12.076;2023-11-19T08:22:03;1.43;;;1.33;;
7539;SDS011;3811;49.006;12.076;2023-11-19T08:24:30;1.20;;;1.20;;
7539;SDS011;3811;49.006;12.076;2023-11-19T08:26:57;1.37;;;1.27;;
7539;SDS011;3811;49.006;12.076;2023-11-19T08:29:24;1.27;;;1.00;;
7539;SDS011;3811;49.006;12.076;2023-11-19T08:31:54;1.77;;;1.53;;
7539;SDS011;3811;49.006;12.076;2023-11-19T08:34:21;1.50;;;1.23;;
7539;SDS011;3811;49.006;12.076;2023-11-19T08:36:49;1.70;;;1.60;;
7539;SDS011;3811;49.006;12.076;2023-11-19T08:39:18;1.37;;;1.27;;
7539;SDS011;3811;49.006;12.076;2023-11-19T08:41:46;1.57;;;1.47;;
7539;SDS011;3811;49.006;12.076;2023-11-19T08:44:13;1.33;;;1.23;;
7539;SDS011;3811;49.006;12.076;2023-11-19T08:46:45;1.37;;;1.23;;
7539;SDS011;3811;49.006;12.076;2023-11-19T08:49:14;1.50;;;1.40;;
7539;SDS011;3811;49.006;12.076;2023-11-19T08:51:41;1.30;;;1.27;;
7539;SDS011;3811;49.006;12.076;2023-11-19T08:54:08;2.10;;;1.43;;
7539;SDS011;3811;49.006;12.076;2023-11-19T08:56:35;1.87;;;1.77;;
7539;SDS011;3811;49.006;12.076;2023-11-19T08:59:04;1.63;;;1.53;;
7539;SDS011;3811;49.006;12.076;2023-11-19T09:01:31;2.07;;;1.70;;
7539;SDS011;3811;49.006;12.076;2023-11-19T09:03:58;2.33;;;1.97;;
7539;SDS011;3811;49.006;12.076;2023-11-19T09:06:27;1.57;;;1.17;;
7539;SDS011;3811;49.006;12.076;2023-11-19T09:08:54;1.27;;;1.17;;
7539;SDS011;3811;49.006;12.076;2023-11-19T09:11:25;1.43;;;1.30;;
7539;SDS011;3811;49.006;12.076;2023-11-19T09:13:52;1.60;;;1.50;;
7539;SDS011;3811;49.006;12.076;2023-11-19T09:16:20;1.10;;;1.07;;
7539;SDS011;3811;49.006;12.076;2023-11-19T09:18:47;1.63;;;1.53;;
7539;SDS011;3811;49.006;12.076;2023-11-19T09:21:14;2.40;;;1.77;;
7539;SDS011;3811;49.006;12.076;2023-11-19T09:23:42;2.37;;;1.37;;
7539;SDS011;3811;49.006;12.076;2023-11-19T09:26:10;0.93;;;0.93;;
7539;SDS011;3811;49.006;12.076;2023-11-19T09:28:37;1.60;;;1.50;;
7539;SDS011;3811;49.006;12.076;2023-11-19T09:31:12;1.87;;;1.67;;
7539;SDS011;3811;49.006;12.076;2023-11-19T09:33:39;1.63;;;1.53;;
7539;SDS011;3811;49.006;12.076;2023-11-19T09:36:07;1.80;;;1.60;;
7539;SDS011;3811;49.006;12.076;2023-11-19T09:38:34;3.57;;;1.27;;
7539;SDS011;3811;49.006;12.076;2023-11-19T09:41:05;2.83;;;2.10;;
7539;SDS011;3811;49.006;12.076;2023-11-19T09:43:34;1.60;;;1.57;;
7539;SDS011;3811;49.006;12.076;2023-11-19T09:46:02;1.50;;;1.40;;
7539;SDS011;3811;49.006;12.076;2023-11-19T09:48:32;2.57;;;2.33;;
7539;SDS011;3811;49.006;12.076;2023-11-19T09:51:00;2.00;;;1.83;;
7539;SDS011;3811;49.006;12.076;2023-11-19T09:53:27;1.90;;;1.80;;
7539;SDS011;3811;49.006;12.076;2023-11-19T09:55:58;2.27;;;2.07;;
7539;SDS011;3811;49.006;12.076;2023-11-19T09:58:29;1.97;;;1.87;;
7539;SDS011;3811;49.006;12.076;2023-11-19T10:00:56;2.50;;;2.30;;
7539;SDS011;3811;49.006;12.076;2023-11-19T10:03:24;2.77;;;2.10;;
7539;SDS011;3811;49.006;12.076;2023-11-19T10:05:52;2.60;;;2.40;;
7539;SDS011;3811;49.006;12.076;2023-11-19T10:08:19;2.67;;;2.43;;
7539;SDS011;3811;49.006;12.076;2023-11-19T10:10:47;3.70;;;3.07;;
7539;SDS011;3811;49.006;12.076;2023-11-19T10:13:14;2.80;;;2.60;;
7539;SDS011;3811;49.006;12.076;2023-11-19T10:15:42;2.47;;;2.23;;
7539;SDS011;3811;49.006;12.076;2023-11-19T10:18:10;2.37;;;2.17;;
7539;SDS011;3811;49.006;12.076;2023-11-19T10:20:37;2.67;;;2.47;;
7539;SDS011;3811;49.006;12.076;2023-11-19T10:23:06;2.37;;;2.17;;
7539;SDS011;3811;49.006;12.076;2023-11-19T10:25:36;2.00;;;1.90;;
7539;SDS011;3811;49.006;12.076;2023-11-19T10:28:08;2.00;;;1.90;;
7539;SDS011;3811;49.006;12.076;2023-11-19T10:30:35;2.37;;;2.17;;
7539;SDS011;3811;49.006;12.076;2023-11-19T10:33:04;2.13;;;1.93;;
7539;SDS011;3811;49.006;12.076;2023-11-19T10:35:32;1.67;;;1.57;;
7539;SDS011;3811;49.006;12.076;2023-11-19T10:37:59;2.47;;;2.20;;
7539;SDS011;3811;49.006;12.076;2023-11-19T10:40:39;1.90;;;1.80;;
7539;SDS011;3811;49.006;12.076;2023-11-19T10:43:06;2.03;;;1.93;;
7539;SDS011;3811;49.006;12.076;2023-11-19T10:45:34;2.60;;;2.37;;
7539;SDS011;3811;49.006;12.076;2023-11-19T10:48:01;1.63;;;1.53;;
7539;SDS011;3811;49.006;12.076;2023-11-19T10:50:32;2.40;;;2.20;;
7539;SDS011;3811;49.006;12.076;2023-11-19T10:53:00;2.33;;;2.13;;
7539;SDS011;3811;49.006;12.076;2023-11-19T10:55:28;2.20;;;2.07;;
7539;SDS011;3811;49.006;12.076;2023-11-19T10:57:58;2.57;;;2.37;;
7539;SDS011;3811;49.006;12.076;2023-11-19T11:00:26;4.57;;;3.53;;
7539;SDS011;3811;49.006;12.076;2023-11-19T11:02:54;3.57;;;2.40;;
7539;SDS011;3811;49.006;12.076;2023-11-19T11:05:22;3.10;;;2.90;;
7539;SDS011;3811;49.006;12.076;2023-11-19T11:07:56;3.43;;;2.33;;
7539;SDS011;3811;49.006;12.076;2023-11-19T11:10:25;3.30;;;3.00;;
7539;SDS011;3811;49.006;12.076;2023-11-19T11:12:52;2.27;;;2.07;;
7539;SDS011;3811;49.006;12.076;2023-11-19T11:15:24;2.43;;;2.23;;
7539;SDS011;3811;49.006;12.076;2023-11-19T11:17:54;2.40;;;2.30;;
7539;SDS011;3811;49.006;12.076;2023-11-19T11:20:24;1.83;;;1.73;;
7539;SDS011;3811;49.006;12.076;2023-11-19T11:23:07;2.27;;;2.13;;
7539;SDS011;3811;49.006;12.076;2023-11-19T11:25:52;3.43;;;2.70;;
7539;SDS011;3811;49.006;12.076;2023-11-19T11:28:26;4.03;;;3.23;;
7539;SDS011;3811;49.006;12.076;2023-11-19T11:30:59;1.10;;;1.10;;
7539;SDS011;3811;49.006;12.076;2023-11-19T11:33:33;0.60;;;0.60;;
7539;SDS011;3811;49.006;12.076;2023-11-19T11:36:07;0.73;;;0.73;;
7539;SDS011;3811;49.006;12.076;2023-11-19T11:38:40;1.00;;;1.00;;
7539;SDS011;3811;49.006;12.076;2023-11-19T11:41:17;0.60;;;0.60;;
7539;SDS011;3811;49.006;12.076;2023-11-19T11:43:46;0.80;;;0.80;;
7539;SDS011;3811;49.006;12.076;2023-11-19T11:49:03;1.10;;;1.10;;
7539;SDS011;3811;49.006;12.076;2023-11-19T11:54:26;0.60;;;0.60;;
7539;SDS011;3811;49.006;12.076;2023-11-19T11:57:03;0.80;;;0.80;;
7539;SDS011;3811;49.006;12.076;2023-11-19T11:59:46;0.80;;;0.80;;
7539;SDS011;3811;49.006;12.076;2023-11-19T12:02:15;0.50;;;0.50;;
7539;SDS011;3811;49.006;12.076;2023-11-19T12:04:42;0.73;;;0.73;;
7539;SDS011;3811;49.006;12.076;2023-11-19T12:07:12;1.10;;;1.10;;
7539;SDS011;3811;49.006;12.076;2023-11-19T12:09:45;0.70;;;0.70;;
7539;SDS011;3811;49.006;12.076;2023-11-19T12:12:21;1.23;;;1.20;;
7539;SDS011;3811;49.006;12.076;2023-11-19T12:15:01;0.93;;;0.93;;
7539;SDS011;3811;49.006;12.076;2023-11-19T12:17:37;0.57;;;0.57;;
7539;SDS011;3811;49.006;12.076;2023-11-19T12:20:05;2.57;;;0.87;;
7539;SDS011;3811;49.006;12.076;2023-11-19T12:22:34;0.70;;;0.70;;
7539;SDS011;3811;49.006;12.076;2023-11-19T12:25:04;0.60;;;0.60;;
7539;SDS011;3811;49.006;12.076;2023-11-19T12:27:31;0.40;;;0.40;;
7539;SDS011;3811;49.006;12.076;2023-11-19T12:29:59;0.50;;;0.50;;
7539;SDS011;3811;49.006;12.076;2023-11-19T12:32:36;0.67;;;0.67;;
7539;SDS011;3811;49.006;12.076;2023-11-19T12:35:04;0.60;;;0.60;;
7539;SDS011;3811;49.006;12.076;2023-11-19T12:37:31;0.60;;;0.60;;
7539;SDS011;3811;49.006;12.076;2023-11-19T12:39:58;0.67;;;0.67;;
7539;SDS011;3811;49.006;12.076;2023-11-19T12:42:36;0.50;;;0.50;;
7539;SDS011;3811;49.006;12.076;2023-11-19T12:45:04;0.57;;;0.57;;
7539;SDS011;3811;49.006;12.076;2023-11-19T12:47:31;0.60;;;0.60;;
7539;SDS011;3811;49.006;12.076;2023-11-19T12:49:58;0.80;;;0.80;;
7539;SDS011;3811;49.006;12.076;2023-11-19T12:52:25;0.63;;;0.63;;
7539;SDS011;3811;49.006;12.076;2023-11-19T12:54:52;0.60;;;0.60;;
7539;SDS011;3811;49.006;12.076;2023-11-19T12:57:20;0.80;;;0.80;;
7539;SDS011;3811;49.006;12.076;2023-11-19T12:59:57;1.43;;;0.80;;
7539;SDS011;3811;49.006;12.076;2023-11-19T13:02:33;0.70;;;0.70;;
7539;SDS011;3811;49.006;12.076;2023-11-19T13:05:23;1.13;;;1.13;;
7539;SDS011;3811;49.006;12.076;2023-11-19T13:08:02;0.40;;;0.40;;
7539;SDS011;3811;49.006;12.076;2023-11-19T13:10:30;0.70;;;0.70;;
7539;SDS011;3811;49.006;12.076;2023-11-19T13:13:01;0.70;;;0.70;;
7539;SDS011;3811;49.006;12.076;2023-11-19T13:15:31;0.40;;;0.40;;
7539;SDS011;3811;49.006;12.076;2023-11-19T13:17:58;0.60;;;0.60;;
7539;SDS011;3811;49.006;12.076;2023-11-19T13:20:25;0.80;;;0.80;;
7539;SDS011;3811;49.006;12.076;2023-11-19T13:22:53;0.50;;;0.50;;
7539;SDS011;3811;49.006;12.076;2023-11-19T13:25:20;0.97;;;0.87;;
7539;SDS011;3811;49.006;12.076;2023-11-19T13:27:48;2.30;;;0.70;;
7539;SDS011;3811;49.006;12.076;2023-11-19T13:30:15;0.47;;;0.47;;
7539;SDS011;3811;49.006;12.076;2023-11-19T13:32:44;0.53;;;0.53;;
7539;SDS011;3811;49.006;12.076;2023-11-19T13:35:11;0.60;;;0.57;;
7539;SDS011;3811;49.006;12.076;2023-11-19T13:37:38;0.60;;;0.60;;
7539;SDS011;3811;49.006;12.076;2023-11-19T13:40:06;1.93;;;0.57;;
7539;SDS011;3811;49.006;12.076;2023-11-19T13:42:35;0.57;;;0.57;;
7539;SDS011;3811;49.006;12.076;2023-11-19T13:45:06;0.67;;;0.67;;
7539;SDS011;3811;49.006;12.076;2023-11-19T13:47:36;0.43;;;0.43;;
7539;SDS011;3811;49.006;12.076;2023-11-19T13:50:08;0.60;;;0.60;;
7539;SDS011;3811;49.006;12.076;2023-11-19T13:52:35;0.50;;;0.50;;
7539;SDS011;3811;49.006;12.076;2023-11-19T13:55:05;0.60;;;0.60;;
7539;SDS011;3811;49.006;12.076;2023-11-19T13:57:33;0.40;;;0.40;;
7539;SDS011;3811;49.006;12.076;2023-11-19T14:00:00;1.00;;;0.83;;
7539;SDS011;3811;49.006;12.076;2023-11-19T14:02:34;0.50;;;0.50;;
7539;SDS011;3811;49.006;12.076;2023-11-19T14:05:01;0.50;;;0.50;;
7539;SDS011;3811;49.006;12.076;2023-11-19T14:07:29;0.60;;;0.60;;
7539;SDS011;3811;49.006;12.076;2023-11-19T14:09:56;0.87;;;0.83;;
7539;SDS011;3811;49.006;12.076;2023-11-19T14:12:23;0.27;;;0.27;;
7539;SDS011;3811;49.006;12.076;2023-11-19T14:14:50;0.30;;;0.30;;
7539;SDS011;3811;49.006;12.076;2023-11-19T14:17:18;0.30;;;0.30;;
7539;SDS011;3811;49.006;12.076;2023-11-19T14:19:45;0.60;;;0.53;;
7539;SDS011;3811;49.006;12.076;2023-11-19T14:22:12;0.40;;;0.40;;
7539;SDS011;3811;49.006;12.076;2023-11-19T14:24:40;0.50;;;0.50;;
7539;SDS011;3811;49.006;12.076;2023-11-19T14:27:08;0.37;;;0.37;;
7539;SDS011;3811;49.006;12.076;2023-11-19T14:29:35;0.60;;;0.60;;
7539;SDS011;3811;49.006;12.076;2023-11-19T14:32:02;0.30;;;0.30;;
7539;SDS011;3811;49.006;12.076;2023-11-19T14:34:29;0.40;;;0.40;;
7539;SDS011;3811;49.006;12.076;2023-11-19T14:36:57;1.80;;;0.63;;
7539;SDS011;3811;49.006;12.076;2023-11-19T14:39:25;0.50;;;0.50;;
7539;SDS011;3811;49.006;12.076;2023-11-19T14:41:55;0.90;;;0.83;;
7539;SDS011;3811;49.006;12.076;2023-11-19T14:44:23;0.40;;;0.40;;
7539;SDS011;3811;49.006;12.076;2023-11-19T14:46:50;0.43;;;0.43;;
7539;SDS011;3811;49.006;12.076;2023-11-19T14:49:18;0.70;;;0.67;;
7539;SDS011;3811;49.006;12.076;2023-11-19T14:51:45;0.60;;;0.60;;
7539;SDS011;3811;49.006;12.076;2023-11-19T14:54:12;1.13;;;0.50;;
7539;SDS011;3811;49.006;12.076;2023-11-19T14:56:41;0.27;;;0.27;;
7539;SDS011;3811;49.006;12.076;2023-11-19T14:59:09;0.60;;;0.60;;
7539;SDS011;3811;49.006;12.076;2023-11-19T15:01:36;0.97;;;0.70;;
7539;SDS011;3811;49.006;12.076;2023-11-19T15:04:03;0.40;;;0.40;;
7539;SDS011;3811;49.006;12.076;2023-11-19T15:06:31;0.50;;;0.50;;
7539;SDS011;3811;49.006;12.076;2023-11-19T15:08:58;0.80;;;0.80;;
7539;SDS011;3811;49.006;12.076;2023-11-19T15:11:25;0.60;;;0.60;;
7539;SDS011;3811;49.006;12.076;2023-11-19T15:13:53;0.50;;;0.50;;